Aérodrome :
LOGIN :

S'inscrire | Disclaimer

   EN    FR    IT 

 










Légende :    VFR   VFR Marginal   IFR   IFR Intensif   IFR Très Intensif
Visi : 
Plafond : 
>= 8 km
>= 3000ft
5 à 8 km
1000 à 3000 ft
1500m à 5 km
500 à 1000 ft
800 à 1500m
200 à 500 ft
< 800m
< 200 ft
Symboles :   Orages  Brouillard  Fortes neiges  Fortes précipitations  Vent > 20 kt
SIGMETs :   Divers  Orages  Givrage  Turbulence  Onde Orograph.  Cendres Volcan.






- Altitude de l'aérodrome : 614 ft
- Code IATA : CRL


EBCI - Charleroi

DERNIER METAR :
  • 130950Z 25013KT 5000 -RADZ SCT005 BKN011 05/04 Q0975 TEMPO 26016G30KT 4000 RADZ BR BKN007

METARs EXPIRÉS :
  • 130920Z 25014KT 5000 -RADZ SCT005 BKN011 05/04 Q0974 TEMPO 26016G30KT 4000 RADZ BR BKN007
  • 130850Z 25014KT 5000 -RADZ SCT005 BKN011 05/04 Q0974 TEMPO 26016G30KT 4000 RADZ BR BKN007
  • 130820Z 25014KT 5000 -RADZ SCT005 BKN011 05/04 Q0973 TEMPO 26016G30KT 4000 RADZ BR BKN007
  • 130750Z 25012KT 5000 -RADZ BR SCT004 BKN007 05/04 Q0973 TEMPO 26016G30KT 4000 RADZ BR BKN007
  • 130720Z 24016KT 6000 -RADZ SCT006 BKN008 05/04 Q0972 TEMPO 4000 RADZ BR BKN007

TAF TAF EBCI
Valide du 13 à 06h jusqu'au 14 à 12h UTC


130500Z 1306/1412 25013KT 9999 SCT010 BKN018
TEMPO 1306/1315 4000 RA SHRA BKN007 BKN012CB
TEMPO 1306/1310 26015G25KT
TEMPO 1310/1315 28020G32KT
PROB30
TEMPO 1315/1320 26015G25KT 4500 SHRA
PROB40
TEMPO 1402/1407 24015G25KT 4500 SHRA RA BKN014



MET'MAP, la Météo Aéronautique d'un coup d'oeil ! - Copyright ORBIFLY Décembre 2007 - Disclaimer

ORBIFLY MET'MAP TEAM :

Programmation & Développement : Alexandra Zaïnal
Sur une idée originale de : Baudouin d'Aumeries
Assistance à la programmation : Marc-Olivier Méhu
Soutien technique & logistique : Manuel Goepfert

Contact : metmap@orbifly.com




SOURCES & CREDITS :

   NOAA